Time;durP1;ratioP1;P1;durP2;ratioP2;P2;SDS_P1;SDS_P2;PMS_P1;PMS_P2;Temp;Humidity;BMP_temperature;BMP_pressure;BME280_temperature;BME280_humidity;BME280_pressure;Samples;Min_cycle;Max_cycle;Signal;HPM_P1;HPM_P2
2022/03/02 00:01:10;;;;;;;20.07;14.90;;;;;;;4.13;58.40;102143.81;5094351;28;20208;-67
2022/03/02 00:03:36;;;;;;;25.50;15.43;;;;;;;4.16;59.83;102149.88;5094587;28;20169;-67
2022/03/02 00:06:03;;;;;;;26.97;14.40;;;;;;;4.21;58.55;102148.19;5094098;28;20186;-67
2022/03/02 00:08:29;;;;;;;26.70;16.40;;;;;;;4.04;59.61;102148.06;5094164;28;20186;-67
2022/03/02 00:10:56;;;;;;;22.00;14.80;;;;;;;3.97;60.45;102147.13;5094050;28;20210;-67
2022/03/02 00:13:22;;;;;;;22.63;14.63;;;;;;;3.97;61.29;102149.72;5094310;28;20186;-67
2022/03/02 00:15:49;;;;;;;20.67;15.20;;;;;;;3.95;62.46;102148.84;5094116;28;20200;-67
2022/03/02 00:18:15;;;;;;;22.97;14.93;;;;;;;3.94;63.15;102149.72;5093969;28;20182;-67
2022/03/02 00:20:42;;;;;;;28.87;16.00;;;;;;;3.91;63.00;102146.19;5094007;28;20251;-67
2022/03/02 00:23:08;;;;;;;22.80;14.70;;;;;;;3.86;63.12;102143.59;5094147;28;20186;-67
2022/03/02 00:25:35;;;;;;;33.30;16.50;;;;;;;3.84;62.29;102137.50;5093857;28;20239;-67
2022/03/02 00:28:01;;;;;;;24.93;16.43;;;;;;;3.93;62.09;102140.19;5093737;28;20206;-65
2022/03/02 00:30:30;;;;;;;23.73;15.97;;;;;;;3.85;62.33;102136.63;5094028;28;20568;-66
2022/03/02 00:32:59;;;;;;;24.43;15.63;;;;;;;3.82;62.23;102132.31;5093687;28;20254;-66
2022/03/02 00:35:26;;;;;;;19.57;14.50;;;;;;;3.86;61.91;102133.22;5093721;28;20200;-66
2022/03/02 00:37:52;;;;;;;21.53;15.50;;;;;;;3.85;62.39;102123.69;5093699;28;20235;-66
2022/03/02 00:40:19;;;;;;;28.03;14.47;;;;;;;3.78;61.38;102124.47;5093641;28;20695;-68
2022/03/02 00:42:46;;;;;;;25.30;16.07;;;;;;;3.92;61.15;102127.22;5093602;28;20602;-66
2022/03/02 00:45:13;;;;;;;24.93;15.77;;;;;;;3.84;61.55;102120.22;5093508;28;20178;-66
2022/03/02 00:47:40;;;;;;;20.80;14.30;;;;;;;3.77;60.35;102121.03;5093445;28;20198;-66
2022/03/02 00:50:07;;;;;;;19.20;14.30;;;;;;;3.78;58.89;102127.06;5093754;28;20678;-68
2022/03/02 00:52:34;;;;;;;25.17;15.83;;;;;;;3.75;59.66;102125.34;5093790;28;20675;-67
2022/03/02 00:55:02;;;;;;;34.27;15.13;;;;;;;3.83;58.48;102120.22;5093727;28;20193;-67
2022/03/02 00:57:29;;;;;;;27.70;15.07;;;;;;;3.72;59.31;102119.28;5093716;28;20186;-67
2022/03/02 00:59:56;;;;;;;21.20;14.40;;;;;;;3.58;59.40;102114.81;5093333;28;20219;-68
2022/03/02 01:02:22;;;;;;;30.37;14.67;;;;;;;3.59;60.41;102113.97;5093661;28;20550;-65
2022/03/02 01:04:50;;;;;;;23.10;15.10;;;;;;;3.61;60.32;102107.94;5093673;28;20228;-65
2022/03/02 01:07:17;;;;;;;20.73;14.27;;;;;;;3.50;61.12;102103.53;5093282;28;20679;-65
2022/03/02 01:09:45;;;;;;;16.63;13.73;;;;;;;3.41;60.36;102097.38;5093279;28;20197;-65
2022/03/02 01:12:11;;;;;;;20.10;14.63;;;;;;;3.41;60.55;102103.41;5093227;28;20595;-65
2022/03/02 01:14:38;;;;;;;20.07;14.37;;;;;;;3.43;60.47;102103.41;5093827;28;20231;-65
2022/03/02 01:17:04;;;;;;;18.67;13.87;;;;;;;3.41;62.11;102094.78;5093809;28;20231;-65
2022/03/02 01:19:31;;;;;;;20.67;14.43;;;;;;;3.41;63.14;102098.22;5093521;28;20231;-65
2022/03/02 01:21:57;;;;;;;24.00;15.03;;;;;;;3.36;63.40;102093.84;5093415;28;20259;-65
2022/03/02 01:24:24;;;;;;;24.00;15.17;;;;;;;3.28;62.93;102096.38;5075075;28;20186;-65
2022/03/02 01:26:50;;;;;;;31.00;14.17;;;;;;;3.21;62.30;102087.66;5093214;28;20209;-65
2022/03/02 01:29:17;;;;;;;25.63;14.23;;;;;;;3.17;62.66;102087.63;5093463;28;20182;-65
2022/03/02 01:31:43;;;;;;;19.83;14.07;;;;;;;3.14;62.86;102088.44;5093030;28;20621;-65
2022/03/02 01:34:10;;;;;;;20.03;14.27;;;;;;;3.11;63.43;102083.25;5093046;28;20182;-65
2022/03/02 01:36:36;;;;;;;20.47;14.40;;;;;;;3.02;64.26;102086.59;5093645;28;20223;-65
2022/03/02 01:39:03;;;;;;;21.90;14.80;;;;;;;2.99;63.89;102081.38;5093024;28;20224;-65
2022/03/02 01:41:30;;;;;;;22.53;14.80;;;;;;;3.08;63.07;102085.81;5092920;28;20210;-65
2022/03/02 01:43:56;;;;;;;20.37;14.60;;;;;;;2.96;63.85;102076.19;5093270;28;20529;-65
2022/03/02 01:46:23;;;;;;;22.67;14.97;;;;;;;2.98;63.93;102079.63;5096253;28;20186;-65
2022/03/02 01:48:50;;;;;;;17.90;14.27;;;;;;;2.95;63.59;102082.22;5096753;28;20202;-65
2022/03/02 01:51:18;;;;;;;22.23;15.40;;;;;;;2.90;63.64;102078.69;5097059;28;20247;-65
2022/03/02 01:53:45;;;;;;;21.23;14.37;;;;;;;2.82;64.45;102079.44;5096756;28;20185;-65
2022/03/02 01:56:11;;;;;;;17.13;13.83;;;;;;;2.81;64.63;102064.78;5096875;28;20245;-65
2022/03/02 01:58:38;;;;;;;24.07;15.60;;;;;;;2.71;64.84;102059.47;5097173;28;20242;-65
2022/03/02 02:01:06;;;;;;;20.17;14.30;;;;;;;2.64;64.68;102059.38;5097067;28;20330;-65
2022/03/02 02:03:33;;;;;;;19.50;14.30;;;;;;;2.64;64.53;102061.97;5096474;28;20550;-65
2022/03/02 02:06:01;;;;;;;24.47;15.90;;;;;;;2.60;64.92;102057.63;5096970;28;20195;-65
2022/03/02 02:08:27;;;;;;;18.73;13.53;;;;;;;2.61;66.01;102052.47;5078668;28;20543;-65
2022/03/02 02:10:56;;;;;;;21.17;14.00;;;;;;;2.59;66.51;102056.75;5096266;28;20217;-65
2022/03/02 02:13:24;;;;;;;20.50;13.43;;;;;;;2.53;66.40;102051.50;5078616;28;20203;-65
2022/03/02 02:15:50;;;;;;;24.27;14.57;;;;;;;2.45;66.23;102048.81;5096272;28;20184;-65
2022/03/02 02:18:17;;;;;;;19.43;14.53;;;;;;;2.42;65.79;102055.63;5096208;28;20203;-65
2022/03/02 02:20:43;;;;;;;21.83;14.67;;;;;;;2.39;65.91;102048.72;5096229;28;20224;-65
2022/03/02 02:23:09;;;;;;;22.70;14.57;;;;;;;2.30;65.31;102053.78;5096742;28;20192;-65
2022/03/02 02:25:36;;;;;;;24.00;16.13;;;;;;;2.25;62.87;102058.00;5096112;28;20191;-65
2022/03/02 02:28:03;;;;;;;26.00;15.80;;;;;;;2.35;63.12;102062.44;5095953;28;20202;-65
2022/03/02 02:30:30;;;;;;;17.70;13.37;;;;;;;2.43;62.54;102054.81;5077668;28;20216;-66
2022/03/02 02:32:57;;;;;;;22.10;12.20;;;;;;;2.47;62.36;102051.41;5096553;28;20180;-65
2022/03/02 02:35:25;;;;;;;18.07;12.43;;;;;;;2.43;63.30;102049.66;5096491;28;20182;-65
2022/03/02 02:37:53;;;;;;;28.23;13.47;;;;;;;2.33;64.97;102040.00;5096093;28;20713;-65
2022/03/02 02:40:21;;;;;;;15.53;13.53;;;;;;;2.37;64.40;102034.91;5095754;28;20256;-66
2022/03/02 02:42:48;;;;;;;19.43;14.10;;;;;;;2.35;64.28;102034.00;5096024;28;20309;-65
2022/03/02 02:45:20;;;;;;;17.73;12.80;;;;;;;2.32;64.84;102027.94;5096480;28;20543;-65
2022/03/02 02:47:49;;;;;;;19.67;13.37;;;;;;;2.22;65.86;102020.94;5095893;28;20199;-65
2022/03/02 02:50:18;;;;;;;21.27;13.13;;;;;;;2.27;65.97;102017.53;5095526;28;20223;-66
2022/03/02 02:52:45;;;;;;;20.63;13.87;;;;;;;2.18;66.11;102020.88;5095830;28;20187;-65
2022/03/02 02:55:13;;;;;;;24.87;14.70;;;;;;;2.13;66.45;102019.94;5095850;28;20694;-65
2022/03/02 02:57:40;;;;;;;17.63;12.77;;;;;;;2.12;67.19;102015.59;5094587;28;20229;-65
2022/03/02 03:00:14;;;;;;;22.30;14.10;;;;;;;2.11;66.99;102024.22;5095381;28;20256;-66
2022/03/02 03:02:41;;;;;;;33.03;14.33;;;;;;;2.14;67.58;102026.84;5095818;28;20184;-65
2022/03/02 03:05:12;;;;;;;19.97;14.23;;;;;;;2.07;68.20;102016.38;5095873;28;20193;-65
2022/03/02 03:07:39;;;;;;;22.00;12.90;;;;;;;2.08;68.75;102016.44;5095438;28;20206;-65
2022/03/02 03:10:07;;;;;;;20.27;13.57;;;;;;;2.10;69.58;102013.88;5095689;28;20190;-66
2022/03/02 03:12:35;;;;;;;23.73;14.27;;;;;;;2.09;70.26;102013.00;5095230;28;20192;-65
2022/03/02 03:15:04;;;;;;;18.20;13.23;;;;;;;2.12;70.17;102015.59;5095183;28;20199;-65
2022/03/02 03:17:31;;;;;;;17.70;13.53;;;;;;;2.10;70.39;102013.88;5095091;28;20189;-65
2022/03/02 03:19:58;;;;;;;22.40;13.67;;;;;;;2.07;70.69;102011.22;5094879;28;20198;-66
2022/03/02 03:22:25;;;;;;;23.07;13.53;;;;;;;2.01;70.79;102009.44;5095318;28;20692;-66
2022/03/02 03:24:52;;;;;;;25.07;13.87;;;;;;;2.13;69.04;102013.91;5095213;28;20585;-65
2022/03/02 03:27:19;;;;;;;21.13;13.80;;;;;;;2.04;69.20;102011.19;5095352;28;20204;-65
2022/03/02 03:29:46;;;;;;;20.50;13.60;;;;;;;1.98;69.67;102008.50;5095119;28;20194;-65
2022/03/02 03:32:12;;;;;;;19.20;13.67;;;;;;;1.96;70.15;102012.78;5094781;28;20616;-65
2022/03/02 03:34:39;;;;;;;16.77;13.43;;;;;;;1.98;70.56;102008.50;5094746;28;20199;-65
2022/03/02 03:37:05;;;;;;;15.30;13.53;;;;;;;2.04;70.61;102009.47;5094910;28;20188;-65
2022/03/02 03:39:32;;;;;;;25.63;15.33;;;;;;;1.98;70.92;102005.94;5094696;28;20192;-65
2022/03/02 03:41:58;;;;;;;19.20;13.90;;;;;;;1.90;71.66;102017.00;5094635;28;20207;-65
2022/03/02 03:44:25;;;;;;;22.63;13.37;;;;;;;1.80;72.28;102011.69;5094561;28;20195;-65
2022/03/02 03:46:52;;;;;;;22.27;13.87;;;;;;;1.82;72.42;102012.59;5094655;28;20194;-65
2022/03/02 03:49:18;;;;;;;29.83;16.43;;;;;;;1.83;72.09;102003.97;5094602;28;20546;-65
2022/03/02 03:51:45;;;;;;;24.50;16.07;;;;;;;1.76;69.79;102008.19;5094326;28;20268;-65
2022/03/02 03:54:11;;;;;;;30.27;17.37;;;;;;;1.77;70.30;102009.91;5094981;28;20186;-65
2022/03/02 03:56:38;;;;;;;22.50;14.93;;;;;;;1.78;70.17;102009.06;5094372;28;20188;-65
2022/03/02 03:59:05;;;;;;;22.00;14.10;;;;;;;1.75;70.35;102006.44;5094287;28;20190;-65
2022/03/02 04:01:32;;;;;;;23.17;14.80;;;;;;;1.79;70.53;102003.09;5094201;28;20249;-65
2022/03/02 04:03:59;;;;;;;24.17;13.93;;;;;;;1.83;69.94;101999.69;5094157;28;20188;-65
2022/03/02 04:06:25;;;;;;;29.23;15.43;;;;;;;1.76;70.04;101995.28;5094359;28;20188;-65
2022/03/02 04:08:52;;;;;;;23.20;17.00;;;;;;;1.66;69.60;101993.41;5093706;28;20206;-65
2022/03/02 04:11:18;;;;;;;27.93;15.43;;;;;;;1.73;69.19;101997.81;5093977;28;20757;-66
2022/03/02 04:13:45;;;;;;;25.60;15.90;;;;;;;1.77;69.03;101993.56;5094247;28;20196;-65
2022/03/02 04:16:11;;;;;;;25.87;15.20;;;;;;;1.78;69.19;101988.41;5094206;28;20709;-65
2022/03/02 04:18:38;;;;;;;23.07;15.87;;;;;;;1.70;69.78;101992.59;5094153;28;20183;-65
2022/03/02 04:21:05;;;;;;;41.07;19.37;;;;;;;1.69;69.97;101980.53;5093661;28;20218;-65
2022/03/02 04:23:31;;;;;;;28.43;16.67;;;;;;;1.68;69.99;101988.25;5094082;28;20587;-65
2022/03/02 04:25:58;;;;;;;24.17;16.27;;;;;;;1.72;70.02;101978.03;5093775;28;20192;-65
2022/03/02 04:28:25;;;;;;;27.57;16.73;;;;;;;1.63;70.29;101978.72;5093700;28;20264;-65
2022/03/02 04:30:52;;;;;;;33.23;16.20;;;;;;;1.63;70.26;101980.44;5093890;28;20254;-65
2022/03/02 04:33:18;;;;;;;25.13;15.90;;;;;;;1.53;70.52;101982.00;5094264;28;20197;-65
2022/03/02 04:35:45;;;;;;;27.73;16.13;;;;;;;1.58;71.57;101977.81;5093752;28;20570;-66
2022/03/02 04:38:11;;;;;;;28.57;16.33;;;;;;;1.56;71.76;101970.84;5094226;28;20202;-65
2022/03/02 04:40:38;;;;;;;26.83;16.63;;;;;;;1.50;71.85;101974.22;5093433;28;20610;-65
2022/03/02 04:43:04;;;;;;;26.00;15.87;;;;;;;1.47;71.64;101970.72;5093586;28;20185;-65
2022/03/02 04:45:31;;;;;;;32.07;16.07;;;;;;;1.50;71.17;101970.75;5093564;28;20592;-65
2022/03/02 04:47:59;;;;;;;27.70;16.23;;;;;;;1.40;71.34;101977.50;5093309;28;20286;-65
2022/03/02 04:50:26;;;;;;;27.87;16.13;;;;;;;1.34;71.53;101970.50;5093939;28;20217;-65
2022/03/02 04:52:57;;;;;;;32.03;16.87;;;;;;;1.13;72.16;101970.13;5093738;28;20212;-65
2022/03/02 04:55:23;;;;;;;26.73;16.30;;;;;;;1.09;72.61;101974.41;5094022;28;20234;-65
2022/03/02 04:57:55;;;;;;;23.80;14.57;;;;;;;1.19;72.33;101962.50;5093933;28;20186;-65
2022/03/02 05:00:27;;;;;;;25.80;16.50;;;;;;;1.19;72.37;101967.66;5076074;28;20209;-65
2022/03/02 05:02:59;;;;;;;29.63;17.03;;;;;;;1.05;72.92;101971.72;5093664;28;20587;-65
2022/03/02 05:05:27;;;;;;;27.00;15.73;;;;;;;1.09;72.63;101971.81;5093506;28;20209;-65
2022/03/02 05:07:54;;;;;;;24.33;15.67;;;;;;;1.17;72.39;101964.22;5093727;28;20247;-65
2022/03/02 05:10:23;;;;;;;26.70;15.83;;;;;;;1.09;72.68;101965.78;5093068;28;20244;-66
2022/03/02 05:12:50;;;;;;;27.47;16.17;;;;;;;1.04;72.83;101963.13;5093209;28;20182;-65
2022/03/02 05:15:17;;;;;;;24.23;16.60;;;;;;;1.02;73.07;101969.97;5093552;28;20189;-66
2022/03/02 05:17:45;;;;;;;24.07;15.73;;;;;;;1.00;73.12;101963.03;5093501;28;20916;-66
2022/03/02 05:20:13;;;;;;;31.93;15.07;;;;;;;0.94;73.38;101957.78;5094355;28;20621;-67
2022/03/02 05:22:39;;;;;;;25.13;16.87;;;;;;;0.94;73.30;101960.38;5097348;28;20194;-67
2022/03/02 05:25:07;;;;;;;23.93;14.90;;;;;;;0.91;72.97;101957.72;5097308;28;20193;-67
2022/03/02 05:27:34;;;;;;;22.33;15.80;;;;;;;0.94;72.54;101952.63;5097425;28;20187;-67
2022/03/02 05:30:01;;;;;;;26.20;15.87;;;;;;;0.90;72.35;101958.56;5097495;28;20224;-67
2022/03/02 05:32:27;;;;;;;33.13;16.77;;;;;;;0.86;72.54;101949.91;5097469;28;20171;-67
2022/03/02 05:34:54;;;;;;;28.10;15.83;;;;;;;0.86;72.54;101957.66;5097340;28;20205;-65
2022/03/02 05:37:20;;;;;;;38.20;16.43;;;;;;;0.77;72.54;101949.72;5097556;28;20501;-65
2022/03/02 05:39:47;;;;;;;23.10;15.00;;;;;;;0.73;72.81;101956.53;5096984;28;20722;-65
2022/03/02 05:42:13;;;;;;;30.03;16.83;;;;;;;0.73;72.93;101953.97;5096824;28;20702;-65
2022/03/02 05:44:40;;;;;;;34.07;15.60;;;;;;;0.63;73.30;101953.75;5078720;28;20202;-65
2022/03/02 05:47:06;;;;;;;31.67;16.13;;;;;;;0.55;73.46;101953.59;5096663;28;20195;-65
2022/03/02 05:49:33;;;;;;;42.93;16.53;;;;;;;0.58;73.38;101945.06;5096725;28;20206;-65
2022/03/02 05:52:00;;;;;;;32.97;14.43;;;;;;;0.56;73.58;101955.31;5097181;28;20684;-65
2022/03/02 05:54:27;;;;;;;31.17;15.50;;;;;;;0.51;73.59;101955.25;5096938;28;20178;-65
2022/03/02 05:56:53;;;;;;;40.03;15.10;;;;;;;0.50;73.68;101950.06;5096544;28;20255;-65
2022/03/02 05:59:20;;;;;;;25.30;14.87;;;;;;;0.54;73.56;101954.44;5096896;28;20186;-65
2022/03/02 06:01:47;;;;;;;24.80;13.70;;;;;;;0.49;73.62;101945.75;5096545;28;20206;-65
2022/03/02 06:04:13;;;;;;;34.50;15.80;;;;;;;0.50;73.63;101955.19;5096816;28;20556;-65
2022/03/02 06:06:40;;;;;;;33.23;16.07;;;;;;;0.47;74.20;101957.72;5096752;28;20468;-65
2022/03/02 06:09:10;;;;;;;32.30;16.57;;;;;;;0.45;74.44;101951.69;5096276;28;20205;-65
2022/03/02 06:11:39;;;;;;;30.27;16.23;;;;;;;0.47;74.65;101943.13;5096059;28;20225;-65
2022/03/02 06:14:07;;;;;;;34.83;15.53;;;;;;;0.55;74.55;101956.19;5096849;28;20236;-65
2022/03/02 06:16:33;;;;;;;22.67;14.70;;;;;;;0.59;74.48;101946.81;5096216;28;20197;-65
2022/03/02 06:19:00;;;;;;;23.17;15.30;;;;;;;0.54;74.68;101946.72;5096458;28;20213;-65
2022/03/02 06:21:28;;;;;;;25.73;15.90;;;;;;;0.55;74.72;101948.44;5096035;28;20466;-65
2022/03/02 06:23:56;;;;;;;30.63;15.73;;;;;;;0.55;74.58;101951.03;5096157;28;20190;-65
2022/03/02 06:26:25;;;;;;;24.97;14.00;;;;;;;0.55;74.68;101959.63;5096153;28;20185;-65
2022/03/02 06:28:52;;;;;;;40.77;15.57;;;;;;;0.54;74.80;101959.59;5095896;28;20202;-65
2022/03/02 06:31:19;;;;;;;27.17;15.77;;;;;;;0.52;74.94;101963.84;5096234;28;20206;-65
2022/03/02 06:33:46;;;;;;;32.90;14.73;;;;;;;0.52;74.88;101966.44;5095873;28;20215;-65
2022/03/02 06:36:14;;;;;;;21.40;14.47;;;;;;;0.52;75.04;101961.28;5096173;28;20206;-65
2022/03/02 06:38:40;;;;;;;30.10;15.70;;;;;;;0.53;74.95;101968.16;5096402;28;20182;-65
2022/03/02 06:41:29;;;;;;;22.97;15.43;;;;;;;0.56;74.82;101973.38;5095972;28;20553;-65
2022/03/02 06:44:14;;;;;;;22.80;14.10;;;;;;;0.60;74.66;101962.28;5095872;28;20224;-65
2022/03/02 06:46:47;;;;;;;36.77;15.77;;;;;;;0.66;74.89;101965.00;5096041;28;20179;-65
2022/03/02 06:49:25;;;;;;;38.97;15.40;;;;;;;0.66;75.30;101965.00;5095965;28;20259;-65
2022/03/02 06:51:59;;;;;;;35.67;15.67;;;;;;;0.64;75.53;101966.66;5096397;28;20745;-65
2022/03/02 06:54:30;;;;;;;31.13;15.77;;;;;;;0.66;75.73;101964.13;5096710;28;20167;-65
2022/03/02 06:56:59;;;;;;;34.17;14.57;;;;;;;0.68;75.45;101971.03;5096409;28;20257;-65
2022/03/02 06:59:36;;;;;;;34.37;15.63;;;;;;;0.73;75.20;101972.00;5095593;28;20178;-65
2022/03/02 07:02:04;;;;;;;21.77;13.60;;;;;;;0.74;75.02;101970.28;5095749;28;20209;-65
2022/03/02 07:04:39;;;;;;;27.10;14.40;;;;;;;0.70;75.18;101964.19;5095545;28;20193;-65
2022/03/02 07:07:06;;;;;;;25.53;14.30;;;;;;;0.75;75.30;101975.47;5095926;28;20602;-65
2022/03/02 07:09:34;;;;;;;25.77;15.93;;;;;;;0.68;75.71;101970.16;5095546;28;20195;-65
2022/03/02 07:12:05;;;;;;;27.50;13.90;;;;;;;0.74;75.78;101968.59;5095416;28;20251;-65
2022/03/02 07:14:33;;;;;;;26.73;15.23;;;;;;;0.90;75.10;101971.44;5095206;28;20186;-65
2022/03/02 07:17:02;;;;;;;26.03;15.27;;;;;;;1.09;73.02;101960.63;5095461;28;20240;-65
2022/03/02 07:19:28;;;;;;;22.73;15.37;;;;;;;1.32;72.24;101961.88;5095043;28;20610;-65
2022/03/02 07:21:56;;;;;;;28.10;16.10;;;;;;;1.49;72.38;101966.44;5096444;28;20735;-65
2022/03/02 07:24:23;;;;;;;32.80;16.60;;;;;;;1.65;72.56;101963.28;5094939;28;20235;-65
2022/03/02 07:26:53;;;;;;;24.67;15.03;;;;;;;1.76;72.67;101958.25;5094969;28;20525;-65
2022/03/02 07:29:23;;;;;;;22.17;14.70;;;;;;;1.75;72.79;101957.41;5094774;28;20615;-65
2022/03/02 07:31:53;;;;;;;40.67;16.33;;;;;;;1.78;73.14;101962.59;5094838;28;20210;-66
2022/03/02 07:34:20;;;;;;;26.97;16.10;;;;;;;1.80;73.27;101963.50;5095109;28;20191;-66
2022/03/02 07:36:46;;;;;;;34.97;16.40;;;;;;;1.90;72.25;101957.63;5095004;28;20185;-66
2022/03/02 07:39:13;;;;;;;26.57;15.87;;;;;;;1.96;72.01;101958.56;5095306;28;20194;-66
2022/03/02 07:41:40;;;;;;;32.60;16.57;;;;;;;2.01;71.74;101964.66;5094563;28;20210;-66
2022/03/02 07:44:06;;;;;;;26.73;17.17;;;;;;;2.13;71.07;101957.06;5093998;28;20194;-66
2022/03/02 07:46:34;;;;;;;30.37;16.43;;;;;;;2.24;70.30;101944.28;5094504;28;20195;-66
2022/03/02 07:49:02;;;;;;;29.93;16.83;;;;;;;2.33;69.48;101954.75;5094279;28;20214;-66
2022/03/02 07:51:32;;;;;;;28.93;17.10;;;;;;;2.53;68.16;101960.16;5094301;28;20206;-66
2022/03/02 07:54:03;;;;;;;30.47;17.43;;;;;;;2.54;68.36;101952.41;5094655;28;20184;-65
2022/03/02 07:56:32;;;;;;;30.10;16.80;;;;;;;2.73;67.87;101956.09;5094693;28;20224;-65
2022/03/02 07:59:04;;;;;;;31.57;16.57;;;;;;;2.97;67.46;101953.72;5094363;28;20582;-66
2022/03/02 08:01:36;;;;;;;35.87;16.27;;;;;;;3.13;65.43;101959.06;5094433;28;20578;-65
2022/03/02 08:04:06;;;;;;;28.60;17.17;;;;;;;3.32;63.89;101955.78;5076606;28;20182;-65
2022/03/02 08:06:35;;;;;;;28.43;15.93;;;;;;;3.69;62.41;101951.75;5094692;28;20658;-65
2022/03/02 08:09:04;;;;;;;28.30;16.10;;;;;;;3.67;62.56;101944.84;5094323;28;20571;-65
2022/03/02 08:11:32;;;;;;;30.43;17.37;;;;;;;3.75;62.28;101945.75;5094069;28;20220;-66
2022/03/02 08:14:03;;;;;;;30.97;16.17;;;;;;;3.93;61.20;101942.38;5094027;28;20635;-66
2022/03/02 08:16:31;;;;;;;27.37;16.40;;;;;;;4.01;61.07;101939.00;5094240;28;20174;-66
2022/03/02 08:19:01;;;;;;;29.23;18.30;;;;;;;4.18;59.83;101935.63;5075734;28;20200;-66
2022/03/02 08:21:30;;;;;;;31.23;18.33;;;;;;;4.23;59.29;101941.72;5093877;28;20213;-66
2022/03/02 08:23:58;;;;;;;37.33;18.23;;;;;;;4.32;59.22;101936.56;5093918;28;20182;-67
2022/03/02 08:26:26;;;;;;;33.67;16.80;;;;;;;4.51;59.89;101937.50;5093991;28;20178;-66
2022/03/02 08:29:00;;;;;;;36.37;17.80;;;;;;;4.75;58.58;101924.59;5093766;28;20210;-66
2022/03/02 08:31:27;;;;;;;33.07;17.00;;;;;;;4.88;58.28;101935.84;5094050;28;20216;-68
2022/03/02 08:33:56;;;;;;;34.00;17.20;;;;;;;5.04;56.17;101928.94;5094328;28;20206;-68
2022/03/02 08:36:24;;;;;;;29.00;16.63;;;;;;;5.12;57.00;101925.50;5093711;28;20272;-68
2022/03/02 08:38:52;;;;;;;29.40;17.17;;;;;;;5.23;56.19;101936.75;5093678;28;20652;-68
2022/03/02 08:41:19;;;;;;;31.67;18.03;;;;;;;5.45;54.56;101929.84;5093778;28;20208;-68
2022/03/02 08:43:47;;;;;;;25.63;16.80;;;;;;;5.49;55.09;101931.53;5093567;28;20187;-68
2022/03/02 08:46:14;;;;;;;28.37;16.30;;;;;;;5.71;52.80;101931.50;5093562;28;20190;-68
2022/03/02 08:48:47;;;;;;;31.87;16.53;;;;;;;5.87;52.72;101930.63;5093482;28;20564;-68
2022/03/02 08:51:13;;;;;;;27.77;17.73;;;;;;;5.99;53.53;101925.41;5093486;28;20218;-68
2022/03/02 08:53:43;;;;;;;33.10;14.73;;;;;;;6.22;50.73;101917.56;5094426;28;20566;-68
2022/03/02 08:56:10;;;;;;;26.10;15.33;;;;;;;6.41;50.62;101917.47;5092553;28;20173;-68
2022/03/02 08:58:37;;;;;;;30.43;16.10;;;;;;;6.64;52.11;101915.59;5093636;28;20186;-68
2022/03/02 09:01:05;;;;;;;25.40;16.30;;;;;;;6.78;53.06;101913.78;5093357;28;20217;-68
2022/03/02 09:03:34;;;;;;;36.57;15.90;;;;;;;7.04;50.22;101915.34;5093901;28;20666;-68
2022/03/02 09:06:03;;;;;;;23.27;15.03;;;;;;;7.28;48.11;101909.94;5093554;28;20209;-71
2022/03/02 09:08:36;;;;;;;26.50;15.83;;;;;;;7.28;47.54;101912.53;5093482;28;20181;-72
2022/03/02 09:11:02;;;;;;;21.10;14.67;;;;;;;7.37;46.29;101906.41;5093292;28;20216;-71
2022/03/02 09:13:29;;;;;;;20.93;14.60;;;;;;;7.51;46.57;101907.16;5093258;28;20200;-71
2022/03/02 09:15:56;;;;;;;30.10;16.63;;;;;;;7.56;46.27;101896.66;5093228;28;20190;-71
2022/03/02 09:18:23;;;;;;;21.77;15.53;;;;;;;7.77;44.99;101893.84;5093205;28;20204;-71
2022/03/02 09:20:56;;;;;;;21.23;14.37;;;;;;;7.94;44.94;101891.06;5093021;28;20206;-71
2022/03/02 09:23:26;;;;;;;19.13;14.33;;;;;;;7.89;45.48;101883.28;5093539;28;20181;-71
2022/03/02 09:25:56;;;;;;;19.60;14.67;;;;;;;8.10;45.97;101889.13;5093752;28;20609;-70
2022/03/02 09:28:27;;;;;;;20.80;14.87;;;;;;;8.33;44.42;101886.22;5093639;28;20540;-70
2022/03/02 09:30:53;;;;;;;19.87;14.33;;;;;;;8.35;43.17;101890.56;5093222;28;20225;-70
2022/03/02 09:33:23;;;;;;;18.83;13.70;;;;;;;8.45;42.04;101896.53;5093087;28;20188;-70
2022/03/02 09:35:55;;;;;;;16.07;12.20;;;;;;;8.48;41.70;101891.25;5093377;28;20280;-70
2022/03/02 09:38:27;;;;;;;16.43;12.63;;;;;;;8.60;40.68;101895.47;5093031;28;20186;-70
2022/03/02 09:40:58;;;;;;;26.17;12.83;;;;;;;8.61;40.56;101892.81;5093368;28;20213;-70
2022/03/02 09:43:25;;;;;;;14.90;13.30;;;;;;;8.73;41.27;101894.41;5093388;28;20178;-70
2022/03/02 09:45:56;;;;;;;19.90;12.40;;;;;;;8.79;39.80;101894.31;5093017;28;20191;-70
2022/03/02 09:48:32;;;;;;;27.67;13.20;;;;;;;8.89;39.86;101895.03;5093253;28;20232;-70
2022/03/02 09:51:01;;;;;;;14.80;12.20;;;;;;;8.97;39.85;101898.38;5092884;28;20214;-70
2022/03/02 09:53:30;;;;;;;19.27;13.30;;;;;;;9.32;38.84;101890.81;5093219;28;20178;-70
2022/03/02 09:56:01;;;;;;;16.93;12.67;;;;;;;9.33;38.65;101895.16;5093418;28;20182;-70
2022/03/02 09:58:28;;;;;;;22.13;14.97;;;;;;;9.37;39.19;101889.00;5092829;28;20172;-70
2022/03/02 10:00:57;;;;;;;22.30;14.10;;;;;;;9.31;38.43;101893.47;5092991;28;20198;-70
2022/03/02 10:03:35;;;;;;;15.30;13.57;;;;;;;9.47;38.85;101889.69;5092821;28;20235;-70
2022/03/02 10:06:05;;;;;;;17.20;13.43;;;;;;;9.48;38.09;101891.41;5094134;28;20575;-70
2022/03/02 10:08:36;;;;;;;20.00;14.40;;;;;;;9.46;38.54;101887.13;5096898;28;20176;-72
2022/03/02 10:11:05;;;;;;;16.00;13.17;;;;;;;9.45;38.23;101886.25;5096394;28;20224;-72
2022/03/02 10:13:33;;;;;;;21.97;14.73;;;;;;;9.45;38.19;101882.78;5096966;28;20557;-72
2022/03/02 10:16:04;;;;;;;18.50;12.70;;;;;;;9.39;36.60;101878.50;5096324;28;20232;-72
2022/03/02 10:18:35;;;;;;;14.27;12.47;;;;;;;9.52;37.31;101881.78;5096971;28;20187;-71
2022/03/02 10:21:05;;;;;;;16.37;12.93;;;;;;;9.76;38.79;101878.69;5096282;28;20270;-71
2022/03/02 10:23:42;;;;;;;17.63;13.00;;;;;;;9.60;37.77;101880.75;5096462;28;20192;-71
2022/03/02 10:26:11;;;;;;;24.83;12.43;;;;;;;9.58;35.41;101874.69;5096536;28;20175;-71
2022/03/02 10:29:21;;;;;;;13.47;12.10;;;;;;;9.31;35.00;101880.41;5096460;28;20559;-71
2022/03/02 10:31:48;;;;;;;13.40;12.00;;;;;;;9.32;35.11;101874.28;5095995;28;20712;-72
2022/03/02 10:34:30;;;;;;;17.10;12.53;;;;;;;9.58;35.73;101868.59;5096054;28;20182;-71
2022/03/02 10:37:08;;;;;;;16.43;12.93;;;;;;;9.83;36.30;101866.34;5095965;28;20178;-71
2022/03/02 10:39:48;;;;;;;13.37;11.97;;;;;;;9.78;34.28;101868.19;5096338;28;20609;-71
2022/03/02 10:42:36;;;;;;;13.83;12.50;;;;;;;9.48;36.53;101864.41;5096199;28;20685;-72
2022/03/02 10:45:12;;;;;;;14.70;12.37;;;;;;;9.76;36.56;101859.53;5095831;28;20693;-72
2022/03/02 10:47:55;;;;;;;14.43;12.93;;;;;;;9.89;36.19;101856.63;5096079;28;20203;-71
2022/03/02 10:50:24;;;;;;;17.17;12.57;;;;;;;10.06;35.19;101861.50;5095658;28;20227;-71
2022/03/02 10:52:53;;;;;;;19.37;14.23;;;;;;;10.19;36.66;101862.13;5095623;28;20193;-71
2022/03/02 10:55:20;;;;;;;19.20;12.87;;;;;;;10.40;35.85;101859.06;5096150;28;20177;-71
2022/03/02 10:57:50;;;;;;;20.30;12.93;;;;;;;10.22;35.08;101855.97;5095608;28;20196;-71
2022/03/02 11:00:19;;;;;;;18.47;13.43;;;;;;;10.27;35.66;101857.63;5095495;28;20552;-71
2022/03/02 11:02:48;;;;;;;19.03;13.43;;;;;;;10.25;35.67;101861.16;5095781;28;20548;-71
2022/03/02 11:05:18;;;;;;;13.80;12.40;;;;;;;10.19;35.41;101859.50;5077222;28;20694;-72
2022/03/02 11:07:46;;;;;;;18.87;14.20;;;;;;;10.38;36.72;101858.25;5095980;28;20204;-72
2022/03/02 11:10:20;;;;;;;18.57;13.40;;;;;;;10.78;36.17;101856.47;5095444;28;20717;-72
2022/03/02 11:12:49;;;;;;;17.50;13.63;;;;;;;10.96;35.21;101848.19;5095208;28;20182;-72
2022/03/02 11:15:18;;;;;;;15.43;12.87;;;;;;;11.04;35.49;101843.59;5095840;28;20180;-70
2022/03/02 11:17:59;;;;;;;15.70;12.37;;;;;;;11.13;33.79;101845.97;5094178;28;20186;-71
2022/03/02 11:20:28;;;;;;;19.40;13.53;;;;;;;11.09;32.91;101833.00;5095109;28;20225;-69
2022/03/02 11:22:58;;;;;;;14.53;12.87;;;;;;;11.00;34.40;101831.47;5095080;28;20190;-70